KMPZ/MPZ METAR and TAF weather

Enter ICAO airport designator
Station Type Date Time Source
KMPZ METAR 2019/02/21 15:35 UTC NOAA

KMPZ 211535Z AUTO 29005KT 10SM CLR M01/M06 A3024 RMK AO2


Station Type Date Time Source
KMPZ Decoded METAR 2019/02/21 15:35 UTC NOAA

Mount Pleasant, Mount Pleasant Municipal Airport, IA, United States (KMPZ) 40-56-48N 091-30-40W
Feb 21, 2019 - 10:35 AM EST / 2019.02.21 1535 UTC
Wind: from the WNW (290 degrees) at 6 MPH (5 KT):0
Visibility: 10 mile(s):0
Sky conditions: clear
Temperature: 30 F (-1 C)
Windchill: 23 F (-5 C):1
Dew Point: 21 F (-6 C)
Relative Humidity: 68%
Pressure (altimeter): 30.24 in. Hg (1024 hPa)
ob: KMPZ 211535Z AUTO 29005KT 10SM CLR M01/M06 A3024 RMK AO2
cycle: 15

Station Type Date Time Source
KMPZ TAF UTC NOAA

Error!


Example: see airport list